createdAt,value
2017-09-15T00:00:11.296Z,36.83
2017-09-15T00:01:11.283Z,37.3
2017-09-15T00:02:10.946Z,37.49
2017-09-15T00:03:10.929Z,37.23
2017-09-15T00:04:11.241Z,37.49
2017-09-15T00:05:11.227Z,36.73
2017-09-15T00:06:10.887Z,37.21
2017-09-15T00:07:10.874Z,37.12
2017-09-15T00:08:11.177Z,36.64
2017-09-15T00:09:11.175Z,37.12
2017-09-15T00:10:11.189Z,36.73
2017-09-15T00:11:11.129Z,37.02
2017-09-15T00:12:10.799Z,36.83
2017-09-15T00:13:11.101Z,37.49
2017-09-15T00:14:10.765Z,37.78
2017-09-15T00:15:10.753Z,37.9
2017-09-15T00:16:11.062Z,38.37
2017-09-15T00:17:11.040Z,38.28
2017-09-15T00:18:11.035Z,38.47
2017-09-15T00:19:10.701Z,38.73
2017-09-15T00:20:11.002Z,38.66
2017-09-15T00:21:10.663Z,38.73
2017-09-15T00:22:10.973Z,38.73
2017-09-15T00:23:10.637Z,39.22
2017-09-15T00:24:10.620Z,39.42
2017-09-15T00:25:10.610Z,39.5
2017-09-15T00:26:10.910Z,39.31
2017-09-15T00:27:10.894Z,38.93
2017-09-15T00:28:10.879Z,39.02
2017-09-15T00:29:10.545Z,38.93
2017-09-15T00:30:10.851Z,38.64
2017-09-15T00:31:10.516Z,38.73
2017-09-15T00:32:10.822Z,38.64
2017-09-15T00:33:10.484Z,39.22
2017-09-15T00:34:10.468Z,39.22
2017-09-15T00:35:10.775Z,39.78
2017-09-15T00:36:10.758Z,39.4
2017-09-15T00:37:10.431Z,39.22
2017-09-15T00:38:10.409Z,39.5
2017-09-15T00:39:10.726Z,40.45
2017-09-15T00:40:10.701Z,41.03
2017-09-15T00:41:10.686Z,41.22
2017-09-15T00:42:10.343Z,41.12
2017-09-15T00:43:10.333Z,40.93
2017-09-15T00:44:10.316Z,40.83
2017-09-15T00:45:10.623Z,41.12
2017-09-15T00:46:10.620Z,41.12
2017-09-15T00:47:10.593Z,41.03
2017-09-15T00:48:10.260Z,41.22
2017-09-15T00:49:10.566Z,40.93
2017-09-15T00:50:10.555Z,40.64
2017-09-15T00:51:10.210Z,40.55
2017-09-15T00:52:10.526Z,40.26
2017-09-15T00:53:10.506Z,39.98
2017-09-15T00:54:10.167Z,39.59
2017-09-15T00:55:10.147Z,39.5
2017-09-15T00:56:10.459Z,39.4
2017-09-15T00:57:10.117Z,39.5
2017-09-15T00:58:10.114Z,39.31
2017-09-15T00:59:10.414Z,39.31
2017-09-15T01:00:10.395Z,39.22
2017-09-15T01:01:10.073Z,39.02
2017-09-15T01:02:10.053Z,38.73
2017-09-15T01:03:10.353Z,38.54
2017-09-15T01:04:10.339Z,38.35
2017-09-15T01:05:10.327Z,38.35
2017-09-15T01:06:10.310Z,38.35
2017-09-15T01:07:09.969Z,38.07
2017-09-15T01:08:09.958Z,38.17
2017-09-15T01:09:10.266Z,38.07
2017-09-15T01:10:10.255Z,37.68
2017-09-15T01:11:10.243Z,37.88
2017-09-15T01:12:10.228Z,37.88
2017-09-15T01:13:09.886Z,37.4
2017-09-15T01:14:09.866Z,37.4
2017-09-15T01:15:10.173Z,37.59
2017-09-15T01:16:10.161Z,37.49
2017-09-15T01:17:10.144Z,37.4
2017-09-15T01:18:10.137Z,37.3
2017-09-15T01:19:09.803Z,37.21
2017-09-15T01:20:10.095Z,37.4
2017-09-15T01:21:09.770Z,36.83
2017-09-15T01:22:10.066Z,36.92
2017-09-15T01:23:10.059Z,36.73
2017-09-15T01:24:10.046Z,37.21
2017-09-15T01:25:10.018Z,36.83
2017-09-15T01:26:09.696Z,37.02
2017-09-15T01:27:09.991Z,36.92
2017-09-15T01:28:09.659Z,36.83
2017-09-15T01:29:09.641Z,36.54
2017-09-15T01:30:09.949Z,36.44
2017-09-15T01:31:09.938Z,36.64
2017-09-15T01:32:09.598Z,36.64
2017-09-15T01:33:09.900Z,36.54
2017-09-15T01:34:09.888Z,37.02
2017-09-15T01:35:09.553Z,36.73
2017-09-15T01:36:09.544Z,36.35
2017-09-15T01:37:09.516Z,36.52
2017-09-15T01:38:09.832Z,36.54
2017-09-15T01:39:09.815Z,36.44
2017-09-15T01:40:09.800Z,36.35
2017-09-15T01:41:09.469Z,36.35
2017-09-15T01:42:09.971Z,36.07
2017-09-15T01:43:09.759Z,36.14
2017-09-15T01:44:09.743Z,36.44
2017-09-15T01:45:09.398Z,35.97
2017-09-15T01:46:09.709Z,35.97
2017-09-15T01:47:09.695Z,36.16
2017-09-15T01:48:09.689Z,35.97
2017-09-15T01:49:09.340Z,35.97
2017-09-15T01:50:09.651Z,35.87
2017-09-15T01:51:09.313Z,35.78
2017-09-15T01:52:09.615Z,35.87
2017-09-15T01:53:09.276Z,35.49
2017-09-15T01:54:09.585Z,35.39
2017-09-15T01:55:09.250Z,35.11
2017-09-15T01:56:09.576Z,35.21
2017-09-15T01:57:09.537Z,35.21
2017-09-15T01:58:09.202Z,35.3
2017-09-15T01:59:09.192Z,35.49
2017-09-15T02:00:09.174Z,35.39
2017-09-15T02:01:09.153Z,35.59
2017-09-15T02:02:09.145Z,35.49
2017-09-15T02:03:09.447Z,35.39
2017-09-15T02:04:09.112Z,35.39
2017-09-15T02:05:09.422Z,35.3
2017-09-15T02:06:09.404Z,35.39
2017-09-15T02:07:09.387Z,35.49
2017-09-15T02:08:09.369Z,35.11
2017-09-15T02:09:09.365Z,35.11
2017-09-15T02:10:09.021Z,35.38
2017-09-15T02:11:09.012Z,35.02
2017-09-15T02:12:09.310Z,35.11
2017-09-15T02:13:08.975Z,35.21
2017-09-15T02:14:08.967Z,35.21
2017-09-15T02:15:09.263Z,35.11
2017-09-15T02:16:09.248Z,35.21
2017-09-15T02:17:08.916Z,35.21
2017-09-15T02:18:08.893Z,35.3
2017-09-15T02:19:09.206Z,35.02
2017-09-15T02:20:08.868Z,34.82
2017-09-15T02:21:08.848Z,34.92
2017-09-15T02:22:08.838Z,34.92
2017-09-15T02:23:08.821Z,35.02
2017-09-15T02:24:09.131Z,34.92
2017-09-15T02:25:09.115Z,35.11
2017-09-15T02:26:08.777Z,35.11
2017-09-15T02:27:08.761Z,35.21
2017-09-15T02:28:09.064Z,35.39
2017-09-15T02:29:09.054Z,35.39
2017-09-15T02:30:08.714Z,35.28
2017-09-15T02:31:08.705Z,35.39
2017-09-15T02:32:08.682Z,35.3
2017-09-15T02:33:08.995Z,35.3
2017-09-15T02:34:08.652Z,35.49
2017-09-15T02:35:08.638Z,35.49
2017-09-15T02:36:08.619Z,35.49
2017-09-15T02:37:08.931Z,35.39
2017-09-15T02:38:08.917Z,35.21
2017-09-15T02:39:08.903Z,35.21
2017-09-15T02:40:08.562Z,35.11
2017-09-15T02:41:08.546Z,35.21
2017-09-15T02:42:08.858Z,35.68
2017-09-15T02:43:08.838Z,35.78
2017-09-15T02:44:08.821Z,35.78
2017-09-15T02:45:08.811Z,35.78
2017-09-15T02:46:08.473Z,35.78
2017-09-15T02:47:08.780Z,35.68
2017-09-15T02:48:08.769Z,35.97
2017-09-15T02:49:08.424Z,36.35
2017-09-15T02:50:08.737Z,36.25
2017-09-15T02:51:08.714Z,36.25
2017-09-15T02:52:08.701Z,36.16
2017-09-15T02:53:08.365Z,36.05
2017-09-15T02:54:08.349Z,36.44
2017-09-15T02:55:08.335Z,36.24
2017-09-15T02:56:08.324Z,36.33
2017-09-15T02:57:08.305Z,36.43
2017-09-15T02:58:08.617Z,36.14
2017-09-15T02:59:08.274Z,36.43
2017-09-15T03:00:08.266Z,36.52
2017-09-15T03:01:08.565Z,36.43
2017-09-15T03:02:08.560Z,36.62
2017-09-15T03:03:08.550Z,36.62
2017-09-15T03:04:08.211Z,36.43
2017-09-15T03:05:08.503Z,36.05
2017-09-15T03:06:08.168Z,36.71
2017-09-15T03:07:08.476Z,35.95
2017-09-15T03:08:08.461Z,36.05
2017-09-15T03:09:08.454Z,36.62
2017-09-15T03:10:08.430Z,36.9
2017-09-15T03:11:08.412Z,37
2017-09-15T03:12:08.399Z,37.29
2017-09-15T03:13:08.383Z,37.57
2017-09-15T03:14:08.048Z,37.1
2017-09-15T03:15:08.353Z,37.29
2017-09-15T03:16:08.012Z,37.19
2017-09-15T03:17:08.321Z,37.1
2017-09-15T03:18:08.309Z,37.1
2017-09-15T03:19:07.970Z,37.57
2017-09-15T03:20:08.272Z,37.19
2017-09-15T03:21:08.259Z,37.19
2017-09-15T03:22:07.927Z,36.62
2017-09-15T03:23:08.225Z,36.71
2017-09-15T03:24:08.214Z,37.29
2017-09-15T03:25:07.874Z,37.29
2017-09-15T03:26:08.190Z,37.57
2017-09-15T03:27:07.848Z,37.66
2017-09-15T03:28:08.156Z,37.48
2017-09-15T03:29:08.338Z,37.38
2017-09-15T03:30:08.126Z,37.66
2017-09-15T03:31:07.789Z,37.57
2017-09-15T03:32:08.087Z,37.95
2017-09-15T03:33:08.083Z,37.76
2017-09-15T03:34:07.736Z,37.74
2017-09-15T03:35:07.725Z,38.03
2017-09-15T03:36:07.710Z,38.03
2017-09-15T03:37:07.692Z,38.12
2017-09-15T03:38:07.998Z,38.12
2017-09-15T03:39:07.981Z,38.51
2017-09-15T03:40:07.963Z,38.41
2017-09-15T03:41:07.952Z,38.41
2017-09-15T03:42:07.824Z,38.51
2017-09-15T03:43:07.921Z,38.22
2017-09-15T03:44:07.908Z,38.32
2017-09-15T03:45:07.565Z,38.12
2017-09-15T03:46:07.876Z,38.22
2017-09-15T03:47:07.539Z,37.93
2017-09-15T03:48:07.519Z,37.74
2017-09-15T03:49:07.507Z,37.84
2017-09-15T03:50:07.495Z,37.74
2017-09-15T03:51:07.795Z,37.46
2017-09-15T03:52:07.454Z,37.55
2017-09-15T03:53:07.445Z,37.55
2017-09-15T03:54:07.754Z,37.65
2017-09-15T03:55:07.408Z,37.55
2017-09-15T03:56:07.719Z,37.55
2017-09-15T03:57:07.739Z,37.46
2017-09-15T03:58:07.689Z,37.08
2017-09-15T03:59:07.671Z,37.17
2017-09-15T04:00:07.330Z,36.88
2017-09-15T04:01:07.318Z,37.17
2017-09-15T04:02:07.300Z,36.77
2017-09-15T04:03:07.284Z,36.49
2017-09-15T04:04:07.590Z,36.32
2017-09-15T04:05:07.259Z,36.3
2017-09-15T04:06:07.242Z,36.39
2017-09-15T04:07:07.221Z,36.49
2017-09-15T04:08:07.202Z,36.01
2017-09-15T04:09:07.190Z,36.3
2017-09-15T04:10:07.178Z,36.01
2017-09-15T04:11:07.157Z,36.1
2017-09-15T04:12:07.141Z,36.2
2017-09-15T04:13:07.455Z,36.01
2017-09-15T04:14:07.434Z,36.2
2017-09-15T04:15:07.424Z,36.1
2017-09-15T04:16:07.406Z,35.91
2017-09-15T04:17:07.387Z,36.01
2017-09-15T04:18:07.367Z,35.72
2017-09-15T04:19:07.031Z,35.72
2017-09-15T04:20:07.017Z,35.63
2017-09-15T04:21:07.321Z,35.08
2017-09-15T04:22:06.985Z,35.25
2017-09-15T04:23:06.968Z,35.17
2017-09-15T04:24:07.269Z,35.35
2017-09-15T04:25:06.934Z,35.35
2017-09-15T04:26:07.270Z,35.35
2017-09-15T04:27:06.903Z,35.17
2017-09-15T04:28:07.223Z,35.36
2017-09-15T04:29:06.870Z,35.25
2017-09-15T04:30:06.856Z,35.27
2017-09-15T04:31:07.163Z,35.35
2017-09-15T04:32:06.828Z,34.96
2017-09-15T04:33:07.137Z,35.15
2017-09-15T04:34:07.113Z,34.96
2017-09-15T04:35:06.776Z,34.96
2017-09-15T04:36:06.756Z,34.98
2017-09-15T04:37:07.065Z,34.87
2017-09-15T04:38:06.727Z,34.88
2017-09-15T04:39:07.028Z,34.88
2017-09-15T04:40:06.695Z,35.17
2017-09-15T04:41:07.034Z,34.79
2017-09-15T04:42:06.664Z,34.69
2017-09-15T04:43:06.644Z,34.69
2017-09-15T04:44:06.951Z,34.79
2017-09-15T04:45:06.616Z,34.69
2017-09-15T04:46:06.604Z,34.6
2017-09-15T04:47:06.586Z,34.67
2017-09-15T04:48:06.567Z,34.67
2017-09-15T04:49:06.870Z,35.06
2017-09-15T04:50:06.864Z,34.96
2017-09-15T04:51:06.850Z,35.06
2017-09-15T04:52:06.826Z,34.96
2017-09-15T04:53:06.826Z,35.06
2017-09-15T04:54:06.797Z,34.96
2017-09-15T04:55:06.463Z,34.98
2017-09-15T04:56:06.444Z,34.96
2017-09-15T04:57:06.754Z,35.06
2017-09-15T04:58:06.756Z,35.06
2017-09-15T04:59:06.722Z,34.67
2017-09-15T05:00:06.383Z,34.58
2017-09-15T05:01:06.679Z,34.67
2017-09-15T05:02:06.666Z,34.79
2017-09-15T05:03:06.332Z,34.69
2017-09-15T05:04:06.632Z,34.79
2017-09-15T05:05:06.621Z,34.77
2017-09-15T05:06:06.598Z,34.79
2017-09-15T05:07:06.589Z,34.5
2017-09-15T05:08:06.248Z,34.41
2017-09-15T05:09:06.236Z,34.41
2017-09-15T05:10:06.532Z,34.3
2017-09-15T05:11:06.200Z,34.5
2017-09-15T05:12:06.506Z,34.69
2017-09-15T05:13:06.499Z,34.79
2017-09-15T05:14:06.154Z,34.41
2017-09-15T05:15:06.456Z,34.31
2017-09-15T05:16:06.123Z,34.77
2017-09-15T05:17:06.109Z,34.79
2017-09-15T05:18:06.087Z,34.79
2017-09-15T05:19:06.398Z,34.5
2017-09-15T05:20:06.400Z,34.69
2017-09-15T05:21:06.042Z,34.67
2017-09-15T05:22:06.346Z,34.69
2017-09-15T05:23:06.008Z,34.69
2017-09-15T05:24:05.992Z,34.69
2017-09-15T05:25:06.307Z,34.67
2017-09-15T05:26:05.959Z,34.58
2017-09-15T05:27:06.263Z,34.6
2017-09-15T05:28:06.248Z,34.48
2017-09-15T05:29:05.912Z,34.5
2017-09-15T05:30:05.896Z,34.5
2017-09-15T05:31:06.198Z,34.69
2017-09-15T05:32:06.190Z,34.41
2017-09-15T05:33:06.168Z,34.5
2017-09-15T05:34:06.167Z,34.31
2017-09-15T05:35:06.140Z,34.5
2017-09-15T05:36:06.130Z,34.41
2017-09-15T05:37:05.789Z,34.41
2017-09-15T05:38:06.112Z,34.5
2017-09-15T05:39:05.755Z,34.6
2017-09-15T05:40:06.068Z,34.69
2017-09-15T05:41:06.045Z,34.69
2017-09-15T05:42:06.225Z,34.5
2017-09-15T05:43:05.687Z,34.31
2017-09-15T05:44:05.670Z,34.41
2017-09-15T05:45:05.656Z,34.22
2017-09-15T05:46:05.961Z,34.5
2017-09-15T05:47:05.621Z,34.22
2017-09-15T05:48:05.941Z,34.22
2017-09-15T05:49:05.913Z,34.41
2017-09-15T05:50:05.904Z,34.31
2017-09-15T05:51:05.887Z,34.31
2017-09-15T05:52:05.868Z,34.12
2017-09-15T05:53:05.851Z,33.74
2017-09-15T05:54:05.839Z,33.84
2017-09-15T05:55:05.822Z,33.93
2017-09-15T05:56:05.482Z,34.03
2017-09-15T05:57:05.790Z,34.12
2017-09-15T05:58:05.454Z,34.22
2017-09-15T05:59:05.790Z,33.93
2017-09-15T06:00:05.752Z,33.93
2017-09-15T06:01:05.732Z,33.93
2017-09-15T06:02:05.389Z,33.84
2017-09-15T06:03:05.710Z,33.74
2017-09-15T06:04:05.688Z,33.74
2017-09-15T06:05:05.673Z,33.64
2017-09-15T06:06:05.329Z,33.64
2017-09-15T06:07:05.631Z,33.74
2017-09-15T06:08:05.296Z,33.74
2017-09-15T06:09:05.607Z,33.64
2017-09-15T06:10:05.585Z,33.93
2017-09-15T06:11:05.572Z,33.64
2017-09-15T06:12:05.554Z,33.64
2017-09-15T06:13:05.546Z,33.93
2017-09-15T06:14:05.524Z,33.93
2017-09-15T06:15:05.514Z,33.64
2017-09-15T06:16:05.173Z,33.55
2017-09-15T06:17:05.156Z,33.57
2017-09-15T06:18:05.146Z,33.47
2017-09-15T06:19:05.124Z,33.09
2017-09-15T06:20:05.111Z,33.47
2017-09-15T06:21:05.421Z,33.66
2017-09-15T06:22:05.080Z,33.66
2017-09-15T06:23:05.070Z,33.85
2017-09-15T06:24:05.377Z,33.76
2017-09-15T06:25:05.355Z,33.95
2017-09-15T06:26:05.349Z,33.85
2017-09-15T06:27:05.325Z,34.05
2017-09-15T06:28:04.990Z,34.14
2017-09-15T06:29:05.294Z,34.33
2017-09-15T06:30:04.961Z,34.42
2017-09-15T06:31:05.260Z,34.33
2017-09-15T06:32:04.925Z,34.42
2017-09-15T06:33:04.909Z,34.52
2017-09-15T06:34:04.894Z,34.23
2017-09-15T06:35:05.201Z,34.61
2017-09-15T06:36:04.863Z,34.61
2017-09-15T06:37:05.170Z,34.52
2017-09-15T06:38:04.837Z,34.63
2017-09-15T06:39:05.141Z,35.1
2017-09-15T06:40:05.132Z,35.78
2017-09-15T06:41:04.989Z,36.33
2017-09-15T06:42:05.098Z,36.43
2017-09-15T06:43:05.088Z,36.71
2017-09-15T06:44:04.746Z,37.57
2017-09-15T06:45:05.056Z,37.59
2017-09-15T06:46:04.713Z,37.49
2017-09-15T06:47:04.703Z,37.68
2017-09-15T06:48:05.009Z,37.68
2017-09-15T06:49:04.999Z,38.26
2017-09-15T06:50:04.660Z,38.26
2017-09-15T06:51:04.963Z,38.17
2017-09-15T06:52:04.951Z,37.97
2017-09-15T06:53:04.935Z,38.05
2017-09-15T06:54:04.611Z,37.95
2017-09-15T06:55:04.588Z,38.17
2017-09-15T06:56:04.566Z,38.35
2017-09-15T06:57:04.550Z,38.35
2017-09-15T06:58:04.536Z,38.05
2017-09-15T06:59:04.526Z,37.86
2017-09-15T07:00:04.508Z,37.66
2017-09-15T07:01:04.817Z,37.48
2017-09-15T07:02:04.803Z,37.59
2017-09-15T07:03:04.788Z,37.3
2017-09-15T07:04:04.771Z,37.49
2017-09-15T07:05:04.435Z,37.49
2017-09-15T07:06:04.751Z,37.59
2017-09-15T07:07:04.730Z,37.68
2017-09-15T07:08:04.389Z,37.49
2017-09-15T07:09:04.700Z,37.4
2017-09-15T07:10:04.364Z,37.78
2017-09-15T07:11:04.668Z,37.97
2017-09-15T07:12:04.333Z,38.26
2017-09-15T07:13:04.639Z,38.35
2017-09-15T07:14:04.618Z,38.93
2017-09-15T07:15:04.611Z,39.69
2017-09-15T07:16:04.295Z,39.88
2017-09-15T07:17:04.278Z,39.59
2017-09-15T07:18:04.569Z,39.31
2017-09-15T07:19:04.546Z,39.04
2017-09-15T07:20:04.542Z,38.76
2017-09-15T07:21:04.525Z,39.04
2017-09-15T07:22:04.184Z,40.37
2017-09-15T07:23:04.491Z,41.24
2017-09-15T07:24:04.478Z,41.91
2017-09-15T07:25:04.145Z,43.43
2017-09-15T07:26:04.454Z,42.86
2017-09-15T07:27:04.445Z,45.43
2017-09-15T07:28:04.416Z,46.58
2017-09-15T07:29:04.406Z,46.68
2017-09-15T07:30:04.073Z,48.04
2017-09-15T07:31:04.375Z,47.82
2017-09-15T07:32:04.361Z,48.02
2017-09-15T07:33:04.029Z,47.85
2017-09-15T07:34:04.015Z,48.52
2017-09-15T07:35:04.320Z,49.38
2017-09-15T07:36:03.987Z,48.71
2017-09-15T07:37:03.970Z,48.71
2017-09-15T07:38:04.285Z,50.71
2017-09-15T07:39:04.263Z,50.04
2017-09-15T07:40:03.930Z,52.43
2017-09-15T07:41:04.236Z,52.05
2017-09-15T07:42:03.919Z,51.09
2017-09-15T07:43:04.209Z,51.19
2017-09-15T07:44:03.877Z,51.09
2017-09-15T07:45:04.185Z,50.33
2017-09-15T07:46:03.848Z,50.9
2017-09-15T07:47:03.837Z,52.53
2017-09-15T07:48:03.825Z,53.49
2017-09-15T07:49:03.806Z,56.25
2017-09-15T07:50:04.115Z,56.25
2017-09-15T07:51:04.106Z,55.3
2017-09-15T07:52:04.089Z,55.87
2017-09-15T07:53:03.753Z,54.91
2017-09-15T07:54:04.068Z,55.49
2017-09-15T07:55:04.047Z,55.58
2017-09-15T07:56:03.712Z,55.49
2017-09-15T07:57:04.020Z,55.87
2017-09-15T08:00:04.024Z,57.31
2017-09-15T08:01:03.970Z,58.07
2017-09-15T08:02:03.952Z,60.07
2017-09-15T08:03:03.620Z,59.88
2017-09-15T08:04:03.930Z,59.02
2017-09-15T08:05:03.590Z,59.59
2017-09-15T08:06:03.899Z,59.5
2017-09-15T08:07:03.565Z,58.45
2017-09-15T08:08:03.550Z,57.68
2017-09-15T08:09:03.538Z,56.73
2017-09-15T08:10:03.528Z,56.92
2017-09-15T08:11:03.835Z,57.59
2017-09-15T08:12:03.495Z,57.97
2017-09-15T08:13:03.480Z,60.58
2017-09-15T08:14:03.794Z,60.3
2017-09-15T08:15:03.785Z,60.39
2017-09-15T08:16:03.765Z,62.97
2017-09-15T08:17:03.429Z,62.37
2017-09-15T08:18:03.414Z,61.16
2017-09-15T08:19:03.725Z,61.13
2017-09-15T08:20:03.389Z,60.68
2017-09-15T08:21:03.372Z,60.58
2017-09-15T08:22:03.681Z,62.59
2017-09-15T08:23:03.674Z,63.45
2017-09-15T08:24:03.339Z,65.74
2017-09-15T08:25:03.644Z,63.45
2017-09-15T08:26:03.628Z,62.4
2017-09-15T08:27:03.294Z,62.21
2017-09-15T08:28:03.602Z,60.96
2017-09-15T08:29:03.592Z,60.96
2017-09-15T08:30:03.576Z,61.72
2017-09-15T08:31:03.238Z,62.21
2017-09-15T08:32:03.546Z,61.54
2017-09-15T08:33:03.538Z,62.11
2017-09-15T08:34:03.520Z,62.01
2017-09-15T08:35:03.508Z,66.22
2017-09-15T08:36:03.177Z,65.45
2017-09-15T08:37:03.160Z,65.55
2017-09-15T08:38:03.150Z,64.88
2017-09-15T08:39:03.457Z,64.31
2017-09-15T08:40:03.446Z,64.69
2017-09-15T08:41:03.431Z,67.18
2017-09-15T08:42:03.425Z,65.74
2017-09-15T08:43:03.405Z,67.3
2017-09-15T08:44:03.069Z,65.3
2017-09-15T08:45:03.390Z,67.02
2017-09-15T08:46:03.371Z,67.78
2017-09-15T08:47:03.356Z,67.97
2017-09-15T08:48:03.367Z,70.46
2017-09-15T08:49:03.327Z,69.41
2017-09-15T08:50:02.991Z,74.95
2017-09-15T08:51:03.303Z,71.99
2017-09-15T08:52:02.965Z,72.85
2017-09-15T08:53:03.273Z,74.57
2017-09-15T08:54:03.262Z,75.05
2017-09-15T08:55:03.252Z,74.85
2017-09-15T08:56:03.237Z,72.47
2017-09-15T08:57:03.225Z,73.52
2017-09-15T08:58:03.219Z,71.99
2017-09-15T08:59:03.196Z,70.27
2017-09-15T09:00:02.863Z,74.19
2017-09-15T09:01:02.852Z,72.75
2017-09-15T09:02:02.840Z,73.9
2017-09-15T09:03:02.830Z,72.85
2017-09-15T09:04:03.143Z,72.75
2017-09-15T09:05:03.125Z,73.14
2017-09-15T09:06:03.119Z,72.18
2017-09-15T09:07:03.100Z,73.43
2017-09-15T09:08:02.764Z,78.49
2017-09-15T09:09:03.074Z,74.38
2017-09-15T09:10:03.057Z,71.7
2017-09-15T09:11:03.052Z,72.94
2017-09-15T09:12:03.038Z,72.56
2017-09-15T09:13:03.023Z,73.99
2017-09-15T09:14:02.694Z,75.91
2017-09-15T09:15:02.995Z,73.52
2017-09-15T09:16:02.665Z,73.43
2017-09-15T09:17:02.653Z,74.9
2017-09-15T09:18:02.641Z,72.79
2017-09-15T09:19:02.633Z,78.91
2017-09-15T09:20:02.937Z,81.59
2017-09-15T09:21:02.926Z,80.63
2017-09-15T09:22:02.593Z,81.59
2017-09-15T09:23:02.581Z,80.92
2017-09-15T09:24:02.565Z,84.17
2017-09-15T09:25:02.554Z,82.54
2017-09-15T09:26:02.541Z,84.65
2017-09-15T09:27:02.853Z,82.54
2017-09-15T09:28:02.839Z,85.99
2017-09-15T09:29:02.825Z,84.75
2017-09-15T09:30:02.494Z,82.54
2017-09-15T09:31:02.819Z,81.49
2017-09-15T09:32:02.468Z,80.06
2017-09-15T09:33:02.454Z,83.08
2017-09-15T09:34:02.761Z,80.44
2017-09-15T09:35:02.433Z,79.68
2017-09-15T09:36:02.737Z,79.2
2017-09-15T09:37:02.406Z,78.24
2017-09-15T09:38:02.394Z,79.35
2017-09-15T09:39:02.702Z,79.25
2017-09-15T09:40:02.368Z,79.16
2017-09-15T09:41:02.680Z,78.78
2017-09-15T09:42:02.882Z,80.3
2017-09-15T09:43:02.328Z,78.01
2017-09-15T09:44:02.649Z,76
2017-09-15T09:45:02.306Z,76.77
2017-09-15T09:46:02.616Z,74.76
2017-09-15T09:47:02.603Z,72.94
2017-09-15T09:48:02.587Z,70.94
2017-09-15T09:49:02.612Z,72.94
2017-09-15T09:50:02.238Z,72.66
2017-09-15T09:51:02.548Z,72.47
2017-09-15T09:52:02.213Z,71.13
2017-09-15T09:53:02.204Z,70.07
2017-09-15T09:54:02.184Z,70.04
2017-09-15T09:55:02.492Z,68.32
2017-09-15T09:56:02.161Z,67.75
2017-09-15T09:57:02.470Z,64.53
2017-09-15T09:58:02.135Z,60.52
2017-09-15T09:59:02.120Z,59.47
2017-09-15T10:00:02.107Z,60.33
2017-09-15T10:01:02.094Z,66.83
2017-09-15T10:02:02.084Z,67.69
2017-09-15T10:03:02.391Z,66.73
2017-09-15T10:04:02.057Z,69.6
2017-09-15T10:05:02.370Z,67.11
2017-09-15T10:06:02.028Z,65.87
2017-09-15T10:07:02.337Z,63.29
2017-09-15T10:08:02.322Z,60.99
2017-09-15T10:09:01.988Z,65.01
2017-09-15T10:10:02.299Z,64.53
2017-09-15T10:11:01.963Z,65.48
2017-09-15T10:12:02.273Z,62.81
2017-09-15T10:13:02.264Z,61.38
2017-09-15T10:14:01.925Z,60.52
2017-09-15T10:15:01.911Z,62.33
2017-09-15T10:16:01.897Z,58.7
2017-09-15T10:17:01.881Z,57.84
2017-09-15T10:18:02.244Z,58.8
2017-09-15T10:19:02.176Z,59.37
2017-09-15T10:20:02.170Z,57.93
2017-09-15T10:21:02.150Z,59.88
2017-09-15T10:22:02.147Z,59.49
2017-09-15T10:23:01.806Z,61.02
2017-09-15T10:24:01.794Z,59.78
2017-09-15T10:25:01.783Z,59.49
2017-09-15T10:26:01.769Z,61.05
2017-09-15T10:27:01.756Z,64.69
2017-09-15T10:28:02.062Z,67.47
2017-09-15T10:29:02.067Z,66.61
2017-09-15T10:30:02.043Z,67.37
2017-09-15T10:31:01.712Z,73.5
2017-09-15T10:32:02.014Z,70.28
2017-09-15T10:33:02.007Z,72.29
2017-09-15T10:34:01.991Z,74.49
2017-09-15T10:35:01.981Z,74.11
2017-09-15T10:36:01.649Z,78.89
2017-09-15T10:37:01.639Z,76.69
2017-09-15T10:38:01.951Z,77.55
2017-09-15T10:39:01.938Z,76.89
2017-09-15T10:40:01.927Z,72.77
2017-09-15T10:41:01.594Z,75.73
2017-09-15T10:42:01.902Z,76.6
2017-09-15T10:43:01.571Z,76.02
2017-09-15T10:44:01.557Z,75.16
2017-09-15T10:45:01.877Z,83.3
2017-09-15T10:46:01.865Z,83.45
2017-09-15T10:47:01.854Z,86.04
2017-09-15T10:48:01.514Z,89.29
2017-09-15T10:49:01.825Z,86.7
2017-09-15T10:50:01.820Z,89.67
2017-09-15T10:51:01.802Z,86.51
2017-09-15T10:52:01.470Z,89.34
2017-09-15T10:53:01.457Z,86.13
2017-09-15T10:54:01.446Z,86.13
2017-09-15T10:55:01.758Z,86.28
2017-09-15T10:56:01.743Z,88
2017-09-15T10:57:01.409Z,88.95
2017-09-15T10:58:01.718Z,85.61
2017-09-15T10:59:01.713Z,86.37
2017-09-15T11:00:01.383Z,90.1
2017-09-15T11:01:01.683Z,87.04
2017-09-15T11:02:01.348Z,85.32
2017-09-15T11:03:01.658Z,86.57
2017-09-15T11:04:01.651Z,89.91
2017-09-15T11:05:01.322Z,86.37
2017-09-15T11:06:01.623Z,85.61
2017-09-15T11:07:01.611Z,82.98
2017-09-15T11:08:01.602Z,81.55
2017-09-15T11:09:01.265Z,76.96
2017-09-15T11:10:01.255Z,72.66
2017-09-15T11:11:01.238Z,73.04
2017-09-15T11:12:01.228Z,71.89
2017-09-15T11:13:01.217Z,71.19
2017-09-15T11:14:01.206Z,72.91
2017-09-15T11:15:01.517Z,72.33
2017-09-15T11:16:01.181Z,72.72
2017-09-15T11:17:01.492Z,68.9
2017-09-15T11:18:01.473Z,66.19
2017-09-15T11:19:01.463Z,66
2017-09-15T11:20:01.129Z,65.23
2017-09-15T11:21:01.453Z,62.55
2017-09-15T11:22:01.107Z,61.03
2017-09-15T11:23:01.090Z,59.22
2017-09-15T11:24:01.403Z,57.78
2017-09-15T11:25:01.382Z,56.35
2017-09-15T11:26:01.367Z,55.58
2017-09-15T11:27:01.038Z,54.63
2017-09-15T11:28:01.044Z,54.34
2017-09-15T11:29:01.334Z,52.84
2017-09-15T11:30:01.319Z,52.75
2017-09-15T11:31:00.984Z,53.61
2017-09-15T11:32:01.297Z,53.06
2017-09-15T11:33:01.286Z,54.02
2017-09-15T11:34:01.269Z,60.64
2017-09-15T11:35:01.267Z,66
2017-09-15T11:36:00.924Z,67.76
2017-09-15T11:37:00.916Z,64.88
2017-09-15T11:38:01.232Z,78.61
2017-09-15T11:39:01.219Z,70.12
2017-09-15T11:40:01.221Z,81.66
2017-09-15T11:41:00.883Z,72.17
2017-09-15T11:42:01.078Z,84.77
2017-09-15T11:43:01.195Z,88.22
2017-09-15T11:44:01.184Z,89.99
2017-09-15T11:45:00.860Z,92.77
2017-09-15T11:46:00.852Z,92.68
2017-09-15T11:47:00.849Z,91.91
2017-09-15T11:48:00.842Z,88.22
2017-09-15T11:49:01.164Z,88.31
2017-09-15T11:50:00.836Z,97.04
2017-09-15T11:51:00.829Z,91.67
2017-09-15T11:52:00.820Z,99.87
2017-09-15T11:53:01.138Z,99.2
2017-09-15T11:54:01.130Z,99.29
2017-09-15T11:55:01.130Z,99.99
2017-09-15T11:56:00.802Z,99.99
2017-09-15T11:57:01.113Z,98.82
2017-09-15T11:58:01.110Z,98.91
2017-09-15T11:59:00.786Z,94.74
2017-09-15T12:00:01.107Z,99.99
2017-09-15T12:01:01.095Z,99.99
2017-09-15T12:02:01.090Z,99.99
2017-09-15T12:03:00.762Z,99.99
2017-09-15T12:04:00.759Z,99.99
2017-09-15T12:05:00.756Z,99.99
2017-09-15T12:06:00.750Z,99.99
2017-09-15T12:07:01.068Z,99.99
2017-09-15T12:08:00.744Z,99.99
2017-09-15T12:09:00.741Z,99.99
2017-09-15T12:10:01.062Z,99.99
2017-09-15T12:11:00.734Z,99.99
2017-09-15T12:12:00.737Z,99.99
2017-09-15T12:13:00.728Z,99.99
2017-09-15T12:14:01.047Z,99.99
2017-09-15T12:15:01.046Z,99.99
2017-09-15T12:16:01.043Z,99.99
2017-09-15T12:17:00.718Z,99.99
2017-09-15T12:18:01.037Z,99.99
2017-09-15T12:19:01.038Z,99.99
2017-09-15T12:20:01.032Z,99.99
2017-09-15T12:21:00.707Z,99.99
2017-09-15T12:22:01.055Z,99.99
2017-09-15T12:23:00.700Z,99.99
2017-09-15T12:24:00.695Z,99.99
2017-09-15T12:25:01.016Z,99.99
2017-09-15T12:26:00.689Z,99.99
2017-09-15T12:27:01.006Z,99.99
2017-09-15T12:28:00.678Z,99.99
2017-09-15T12:29:00.673Z,99.99
2017-09-15T12:30:00.992Z,99.99
2017-09-15T12:31:00.983Z,99.99
2017-09-15T12:32:00.986Z,99.99
2017-09-15T12:33:00.648Z,99.99
2017-09-15T12:34:00.642Z,99.99
2017-09-15T12:35:00.631Z,99.99
2017-09-15T12:36:00.947Z,99.99
2017-09-15T12:37:00.615Z,99.99
2017-09-15T12:38:00.610Z,98.05
2017-09-15T12:39:00.601Z,97.28
2017-09-15T12:40:00.915Z,99.99
2017-09-15T12:41:00.907Z,99.24
2017-09-15T12:42:00.575Z,99.43
2017-09-15T12:43:00.570Z,99.99
2017-09-15T12:44:00.559Z,99.63
2017-09-15T12:45:00.874Z,99.99
2017-09-15T12:46:00.863Z,99.99
2017-09-15T12:47:00.531Z,99.99
2017-09-15T12:48:00.525Z,99.99
2017-09-15T12:49:00.839Z,99.99
2017-09-15T12:50:00.830Z,99.99
2017-09-15T12:51:00.503Z,99.99
2017-09-15T12:52:00.814Z,99.99
2017-09-15T12:53:00.805Z,99.99
2017-09-15T12:54:00.482Z,99.99
2017-09-15T12:55:00.471Z,99.99
2017-09-15T12:56:00.463Z,99.99
2017-09-15T12:57:00.456Z,99.99